sensor_id;sensor_type;location;lat;lon;timestamp;P1;durP1;ratioP1;P2;durP2;ratioP2
27899;SDS011;15243;50.726;7.080;2023-03-24T00:00:25;1.92;;;1.40;;
27899;SDS011;15243;50.726;7.080;2023-03-24T00:02:52;4.32;;;1.50;;
27899;SDS011;15243;50.726;7.080;2023-03-24T00:05:20;5.00;;;1.52;;
27899;SDS011;15243;50.726;7.080;2023-03-24T00:07:48;4.53;;;1.60;;
27899;SDS011;15243;50.726;7.080;2023-03-24T00:10:20;5.27;;;1.77;;
27899;SDS011;15243;50.726;7.080;2023-03-24T00:12:48;3.53;;;1.40;;
27899;SDS011;15243;50.726;7.080;2023-03-24T00:15:18;2.08;;;1.40;;
27899;SDS011;15243;50.726;7.080;2023-03-24T00:17:47;3.15;;;1.50;;
27899;SDS011;15243;50.726;7.080;2023-03-24T00:20:18;4.00;;;1.48;;
27899;SDS011;15243;50.726;7.080;2023-03-24T00:22:48;4.32;;;1.48;;
27899;SDS011;15243;50.726;7.080;2023-03-24T00:25:23;3.38;;;1.60;;
27899;SDS011;15243;50.726;7.080;2023-03-24T00:27:55;3.28;;;1.67;;
27899;SDS011;15243;50.726;7.080;2023-03-24T00:30:23;3.35;;;1.40;;
27899;SDS011;15243;50.726;7.080;2023-03-24T00:32:51;2.60;;;1.70;;
27899;SDS011;15243;50.726;7.080;2023-03-24T00:35:18;3.67;;;1.85;;
27899;SDS011;15243;50.726;7.080;2023-03-24T00:37:45;4.38;;;1.90;;
27899;SDS011;15243;50.726;7.080;2023-03-24T00:40:15;2.55;;;1.48;;
27899;SDS011;15243;50.726;7.080;2023-03-24T00:42:44;2.55;;;1.92;;
27899;SDS011;15243;50.726;7.080;2023-03-24T00:45:13;3.55;;;1.63;;
27899;SDS011;15243;50.726;7.080;2023-03-24T00:47:43;3.25;;;1.65;;
27899;SDS011;15243;50.726;7.080;2023-03-24T00:50:11;4.38;;;1.73;;
27899;SDS011;15243;50.726;7.080;2023-03-24T00:52:41;2.97;;;1.85;;
27899;SDS011;15243;50.726;7.080;2023-03-24T00:55:10;3.53;;;1.88;;
27899;SDS011;15243;50.726;7.080;2023-03-24T00:57:42;3.10;;;1.80;;
27899;SDS011;15243;50.726;7.080;2023-03-24T01:00:23;4.28;;;1.80;;
27899;SDS011;15243;50.726;7.080;2023-03-24T01:02:52;2.55;;;1.67;;
27899;SDS011;15243;50.726;7.080;2023-03-24T01:05:25;4.93;;;2.05;;
27899;SDS011;15243;50.726;7.080;2023-03-24T01:07:57;3.90;;;1.83;;
27899;SDS011;15243;50.726;7.080;2023-03-24T01:10:30;2.33;;;1.52;;
27899;SDS011;15243;50.726;7.080;2023-03-24T01:12:59;1.83;;;1.58;;
27899;SDS011;15243;50.726;7.080;2023-03-24T01:15:29;2.53;;;1.63;;
27899;SDS011;15243;50.726;7.080;2023-03-24T01:17:59;4.35;;;1.60;;
27899;SDS011;15243;50.726;7.080;2023-03-24T01:20:32;3.28;;;1.90;;
27899;SDS011;15243;50.726;7.080;2023-03-24T01:22:59;3.28;;;2.00;;
27899;SDS011;15243;50.726;7.080;2023-03-24T01:25:27;5.30;;;2.10;;
27899;SDS011;15243;50.726;7.080;2023-03-24T01:27:55;2.72;;;1.70;;
27899;SDS011;15243;50.726;7.080;2023-03-24T01:30:23;2.00;;;1.80;;
27899;SDS011;15243;50.726;7.080;2023-03-24T01:32:52;3.15;;;1.98;;
27899;SDS011;15243;50.726;7.080;2023-03-24T01:35:19;5.00;;;2.25;;
27899;SDS011;15243;50.726;7.080;2023-03-24T01:37:48;3.90;;;1.83;;
27899;SDS011;15243;50.726;7.080;2023-03-24T01:40:17;4.10;;;1.85;;
27899;SDS011;15243;50.726;7.080;2023-03-24T01:42:45;4.28;;;1.90;;
27899;SDS011;15243;50.726;7.080;2023-03-24T01:48:06;5.35;;;1.85;;
27899;SDS011;15243;50.726;7.080;2023-03-24T01:50:37;2.27;;;1.50;;
27899;SDS011;15243;50.726;7.080;2023-03-24T01:53:08;6.28;;;2.28;;
27899;SDS011;15243;50.726;7.080;2023-03-24T01:55:35;2.78;;;1.90;;
27899;SDS011;15243;50.726;7.080;2023-03-24T01:58:04;3.40;;;1.85;;
27899;SDS011;15243;50.726;7.080;2023-03-24T02:00:32;3.70;;;2.20;;
27899;SDS011;15243;50.726;7.080;2023-03-24T02:03:01;3.17;;;2.30;;
27899;SDS011;15243;50.726;7.080;2023-03-24T02:05:35;3.80;;;2.00;;
27899;SDS011;15243;50.726;7.080;2023-03-24T02:08:09;3.45;;;2.00;;
27899;SDS011;15243;50.726;7.080;2023-03-24T02:10:38;4.90;;;2.50;;
27899;SDS011;15243;50.726;7.080;2023-03-24T02:13:05;3.40;;;2.08;;
27899;SDS011;15243;50.726;7.080;2023-03-24T02:15:33;4.95;;;2.40;;
27899;SDS011;15243;50.726;7.080;2023-03-24T02:18:38;5.00;;;2.50;;
27899;SDS011;15243;50.726;7.080;2023-03-24T02:21:38;4.07;;;2.25;;
27899;SDS011;15243;50.726;7.080;2023-03-24T02:26:46;4.20;;;2.35;;
27899;SDS011;15243;50.726;7.080;2023-03-24T02:32:33;3.97;;;2.40;;
27899;SDS011;15243;50.726;7.080;2023-03-24T02:43:15;3.90;;;2.17;;
27899;SDS011;15243;50.726;7.080;2023-03-24T03:02:13;4.57;;;2.70;;
27899;SDS011;15243;50.726;7.080;2023-03-24T03:07:16;4.68;;;2.33;;
27899;SDS011;15243;50.726;7.080;2023-03-24T03:09:52;3.67;;;2.65;;
27899;SDS011;15243;50.726;7.080;2023-03-24T03:12:29;5.35;;;3.63;;
27899;SDS011;15243;50.726;7.080;2023-03-24T03:15:05;3.77;;;2.83;;
27899;SDS011;15243;50.726;7.080;2023-03-24T03:17:44;5.32;;;3.08;;
27899;SDS011;15243;50.726;7.080;2023-03-24T03:20:24;4.30;;;2.65;;
27899;SDS011;15243;50.726;7.080;2023-03-24T03:23:00;4.38;;;3.10;;
27899;SDS011;15243;50.726;7.080;2023-03-24T03:25:43;5.70;;;3.00;;
27899;SDS011;15243;50.726;7.080;2023-03-24T03:28:17;4.13;;;3.17;;
27899;SDS011;15243;50.726;7.080;2023-03-24T03:30:55;6.40;;;3.05;;
27899;SDS011;15243;50.726;7.080;2023-03-24T03:33:32;5.40;;;3.00;;
27899;SDS011;15243;50.726;7.080;2023-03-24T03:36:17;5.75;;;3.38;;
27899;SDS011;15243;50.726;7.080;2023-03-24T03:39:11;5.22;;;3.08;;
27899;SDS011;15243;50.726;7.080;2023-03-24T03:41:53;4.13;;;3.00;;
27899;SDS011;15243;50.726;7.080;2023-03-24T03:44:21;4.00;;;2.70;;
27899;SDS011;15243;50.726;7.080;2023-03-24T03:46:48;5.70;;;3.20;;
27899;SDS011;15243;50.726;7.080;2023-03-24T03:49:15;4.47;;;3.20;;
27899;SDS011;15243;50.726;7.080;2023-03-24T03:51:44;4.65;;;2.70;;
27899;SDS011;15243;50.726;7.080;2023-03-24T03:54:11;6.18;;;3.38;;
27899;SDS011;15243;50.726;7.080;2023-03-24T03:56:41;3.38;;;2.90;;
27899;SDS011;15243;50.726;7.080;2023-03-24T03:59:21;3.83;;;3.08;;
27899;SDS011;15243;50.726;7.080;2023-03-24T04:01:53;5.15;;;2.90;;
27899;SDS011;15243;50.726;7.080;2023-03-24T04:15:35;4.28;;;2.47;;
27899;SDS011;15243;50.726;7.080;2023-03-24T04:21:01;3.83;;;2.38;;
27899;SDS011;15243;50.726;7.080;2023-03-24T04:26:42;4.03;;;2.40;;
27899;SDS011;15243;50.726;7.080;2023-03-24T04:36:07;3.90;;;2.20;;
27899;SDS011;15243;50.726;7.080;2023-03-24T04:38:57;2.50;;;1.60;;
27899;SDS011;15243;50.726;7.080;2023-03-24T04:41:27;1.88;;;1.67;;
27899;SDS011;15243;50.726;7.080;2023-03-24T04:43:56;3.08;;;1.80;;
27899;SDS011;15243;50.726;7.080;2023-03-24T04:46:24;3.17;;;1.50;;
27899;SDS011;15243;50.726;7.080;2023-03-24T04:48:52;3.50;;;1.95;;
27899;SDS011;15243;50.726;7.080;2023-03-24T04:51:20;2.45;;;1.83;;
27899;SDS011;15243;50.726;7.080;2023-03-24T04:53:47;2.55;;;1.80;;
27899;SDS011;15243;50.726;7.080;2023-03-24T04:59:00;1.35;;;1.23;;
27899;SDS011;15243;50.726;7.080;2023-03-24T05:01:27;2.47;;;1.60;;
27899;SDS011;15243;50.726;7.080;2023-03-24T05:03:56;1.77;;;1.38;;
27899;SDS011;15243;50.726;7.080;2023-03-24T05:06:24;3.17;;;1.73;;
27899;SDS011;15243;50.726;7.080;2023-03-24T05:08:52;3.20;;;1.58;;
27899;SDS011;15243;50.726;7.080;2023-03-24T05:11:19;2.75;;;1.58;;
27899;SDS011;15243;50.726;7.080;2023-03-24T05:13:47;3.15;;;1.50;;
27899;SDS011;15243;50.726;7.080;2023-03-24T05:16:14;2.33;;;1.63;;
27899;SDS011;15243;50.726;7.080;2023-03-24T05:18:41;1.45;;;1.33;;
27899;SDS011;15243;50.726;7.080;2023-03-24T05:21:09;2.60;;;1.65;;
27899;SDS011;15243;50.726;7.080;2023-03-24T05:23:37;2.90;;;1.65;;
27899;SDS011;15243;50.726;7.080;2023-03-24T05:26:04;3.60;;;1.60;;
27899;SDS011;15243;50.726;7.080;2023-03-24T05:28:32;2.00;;;1.13;;
27899;SDS011;15243;50.726;7.080;2023-03-24T05:30:59;3.50;;;1.52;;
27899;SDS011;15243;50.726;7.080;2023-03-24T05:33:27;1.48;;;0.90;;
27899;SDS011;15243;50.726;7.080;2023-03-24T05:35:54;1.20;;;1.10;;
27899;SDS011;15243;50.726;7.080;2023-03-24T05:38:21;3.25;;;0.98;;
27899;SDS011;15243;50.726;7.080;2023-03-24T05:40:48;1.90;;;1.30;;
27899;SDS011;15243;50.726;7.080;2023-03-24T05:43:15;5.70;;;1.73;;
27899;SDS011;15243;50.726;7.080;2023-03-24T05:45:42;0.88;;;0.73;;
27899;SDS011;15243;50.726;7.080;2023-03-24T05:48:10;2.08;;;1.00;;
27899;SDS011;15243;50.726;7.080;2023-03-24T05:50:38;4.85;;;1.50;;
27899;SDS011;15243;50.726;7.080;2023-03-24T05:53:05;1.27;;;0.90;;
27899;SDS011;15243;50.726;7.080;2023-03-24T05:55:32;2.38;;;0.95;;
27899;SDS011;15243;50.726;7.080;2023-03-24T05:58:00;2.13;;;1.20;;
27899;SDS011;15243;50.726;7.080;2023-03-24T06:00:28;3.40;;;1.40;;
27899;SDS011;15243;50.726;7.080;2023-03-24T06:02:56;3.65;;;1.30;;
27899;SDS011;15243;50.726;7.080;2023-03-24T06:05:24;3.25;;;1.20;;
27899;SDS011;15243;50.726;7.080;2023-03-24T06:07:51;3.95;;;1.05;;
27899;SDS011;15243;50.726;7.080;2023-03-24T06:10:24;3.30;;;1.08;;
27899;SDS011;15243;50.726;7.080;2023-03-24T06:12:52;2.08;;;1.27;;
27899;SDS011;15243;50.726;7.080;2023-03-24T06:15:21;4.63;;;1.23;;
27899;SDS011;15243;50.726;7.080;2023-03-24T06:17:49;3.72;;;1.20;;
27899;SDS011;15243;50.726;7.080;2023-03-24T06:20:20;3.10;;;1.25;;
27899;SDS011;15243;50.726;7.080;2023-03-24T06:22:47;3.83;;;1.35;;
27899;SDS011;15243;50.726;7.080;2023-03-24T06:25:15;2.40;;;1.30;;
27899;SDS011;15243;50.726;7.080;2023-03-24T06:27:45;5.55;;;2.00;;
27899;SDS011;15243;50.726;7.080;2023-03-24T06:30:13;7.80;;;1.67;;
27899;SDS011;15243;50.726;7.080;2023-03-24T06:32:45;3.65;;;1.40;;
27899;SDS011;15243;50.726;7.080;2023-03-24T06:35:13;3.83;;;1.30;;
27899;SDS011;15243;50.726;7.080;2023-03-24T06:37:41;6.15;;;1.60;;
27899;SDS011;15243;50.726;7.080;2023-03-24T06:40:08;5.45;;;1.60;;
27899;SDS011;15243;50.726;7.080;2023-03-24T06:42:38;7.70;;;1.25;;
27899;SDS011;15243;50.726;7.080;2023-03-24T06:45:05;5.50;;;1.50;;
27899;SDS011;15243;50.726;7.080;2023-03-24T06:47:32;4.80;;;1.15;;
27899;SDS011;15243;50.726;7.080;2023-03-24T06:50:00;6.93;;;1.50;;
27899;SDS011;15243;50.726;7.080;2023-03-24T06:52:26;7.75;;;1.60;;
27899;SDS011;15243;50.726;7.080;2023-03-24T06:54:53;2.92;;;1.40;;
27899;SDS011;15243;50.726;7.080;2023-03-24T06:57:20;5.10;;;1.33;;
27899;SDS011;15243;50.726;7.080;2023-03-24T06:59:47;5.18;;;1.38;;
27899;SDS011;15243;50.726;7.080;2023-03-24T07:02:14;3.80;;;1.42;;
27899;SDS011;15243;50.726;7.080;2023-03-24T07:04:42;3.70;;;1.42;;
27899;SDS011;15243;50.726;7.080;2023-03-24T07:07:09;7.35;;;1.48;;
27899;SDS011;15243;50.726;7.080;2023-03-24T07:09:57;8.65;;;1.98;;
27899;SDS011;15243;50.726;7.080;2023-03-24T07:12:26;6.28;;;1.48;;
27899;SDS011;15243;50.726;7.080;2023-03-24T07:14:53;7.28;;;1.40;;
27899;SDS011;15243;50.726;7.080;2023-03-24T07:17:21;8.02;;;1.77;;
27899;SDS011;15243;50.726;7.080;2023-03-24T07:19:50;9.70;;;2.25;;
27899;SDS011;15243;50.726;7.080;2023-03-24T07:22:17;8.45;;;1.70;;
27899;SDS011;15243;50.726;7.080;2023-03-24T07:24:44;7.30;;;2.35;;
27899;SDS011;15243;50.726;7.080;2023-03-24T07:27:11;6.63;;;1.50;;
27899;SDS011;15243;50.726;7.080;2023-03-24T07:29:38;7.68;;;2.50;;
27899;SDS011;15243;50.726;7.080;2023-03-24T07:32:05;9.50;;;1.52;;
27899;SDS011;15243;50.726;7.080;2023-03-24T07:34:35;8.80;;;1.95;;
27899;SDS011;15243;50.726;7.080;2023-03-24T07:37:05;5.97;;;1.95;;
27899;SDS011;15243;50.726;7.080;2023-03-24T07:39:32;11.15;;;2.20;;
27899;SDS011;15243;50.726;7.080;2023-03-24T07:41:59;10.30;;;1.95;;
27899;SDS011;15243;50.726;7.080;2023-03-24T07:44:26;9.55;;;2.20;;
27899;SDS011;15243;50.726;7.080;2023-03-24T07:46:53;7.35;;;2.42;;
27899;SDS011;15243;50.726;7.080;2023-03-24T07:49:20;11.05;;;2.25;;
27899;SDS011;15243;50.726;7.080;2023-03-24T07:51:47;10.20;;;3.22;;
27899;SDS011;15243;50.726;7.080;2023-03-24T07:54:14;10.35;;;2.92;;
27899;SDS011;15243;50.726;7.080;2023-03-24T07:56:41;9.05;;;2.70;;
27899;SDS011;15243;50.726;7.080;2023-03-24T07:59:08;9.35;;;2.33;;
27899;SDS011;15243;50.726;7.080;2023-03-24T08:01:35;9.85;;;3.05;;
27899;SDS011;15243;50.726;7.080;2023-03-24T08:04:03;11.15;;;3.00;;
27899;SDS011;15243;50.726;7.080;2023-03-24T08:06:32;11.35;;;1.95;;
27899;SDS011;15243;50.726;7.080;2023-03-24T08:09:00;12.52;;;2.20;;
27899;SDS011;15243;50.726;7.080;2023-03-24T08:11:27;8.85;;;1.90;;
27899;SDS011;15243;50.726;7.080;2023-03-24T08:13:54;13.93;;;3.05;;
27899;SDS011;15243;50.726;7.080;2023-03-24T08:16:21;11.15;;;3.92;;
27899;SDS011;15243;50.726;7.080;2023-03-24T08:18:48;9.40;;;2.53;;
27899;SDS011;15243;50.726;7.080;2023-03-24T08:21:16;9.35;;;2.50;;
27899;SDS011;15243;50.726;7.080;2023-03-24T08:23:43;7.22;;;2.40;;
27899;SDS011;15243;50.726;7.080;2023-03-24T08:26:10;9.18;;;2.65;;
27899;SDS011;15243;50.726;7.080;2023-03-24T08:28:37;17.95;;;2.70;;
27899;SDS011;15243;50.726;7.080;2023-03-24T08:31:04;7.65;;;2.58;;
27899;SDS011;15243;50.726;7.080;2023-03-24T08:33:32;9.07;;;2.00;;
27899;SDS011;15243;50.726;7.080;2023-03-24T08:35:59;12.57;;;2.60;;
27899;SDS011;15243;50.726;7.080;2023-03-24T08:38:29;11.15;;;2.08;;
27899;SDS011;15243;50.726;7.080;2023-03-24T08:40:57;12.30;;;2.20;;
27899;SDS011;15243;50.726;7.080;2023-03-24T08:43:28;8.38;;;1.95;;
27899;SDS011;15243;50.726;7.080;2023-03-24T08:45:56;11.43;;;2.42;;
27899;SDS011;15243;50.726;7.080;2023-03-24T08:48:24;11.13;;;1.98;;
27899;SDS011;15243;50.726;7.080;2023-03-24T08:50:54;8.75;;;2.10;;
27899;SDS011;15243;50.726;7.080;2023-03-24T08:53:21;11.23;;;2.63;;
27899;SDS011;15243;50.726;7.080;2023-03-24T08:55:48;12.07;;;2.55;;
27899;SDS011;15243;50.726;7.080;2023-03-24T08:58:17;13.95;;;2.85;;
27899;SDS011;15243;50.726;7.080;2023-03-24T09:00:45;10.07;;;2.85;;
27899;SDS011;15243;50.726;7.080;2023-03-24T09:03:15;12.23;;;2.10;;
27899;SDS011;15243;50.726;7.080;2023-03-24T09:05:48;8.93;;;2.38;;
27899;SDS011;15243;50.726;7.080;2023-03-24T09:08:16;6.60;;;1.77;;
27899;SDS011;15243;50.726;7.080;2023-03-24T09:10:44;9.23;;;2.20;;
27899;SDS011;15243;50.726;7.080;2023-03-24T09:13:15;11.20;;;2.17;;
27899;SDS011;15243;50.726;7.080;2023-03-24T09:15:46;8.15;;;1.83;;
27899;SDS011;15243;50.726;7.080;2023-03-24T09:18:18;8.75;;;1.60;;
27899;SDS011;15243;50.726;7.080;2023-03-24T09:20:46;9.50;;;1.80;;
27899;SDS011;15243;50.726;7.080;2023-03-24T09:23:15;8.40;;;2.03;;
27899;SDS011;15243;50.726;7.080;2023-03-24T09:25:42;12.07;;;2.13;;
27899;SDS011;15243;50.726;7.080;2023-03-24T09:28:09;10.88;;;2.10;;
27899;SDS011;15243;50.726;7.080;2023-03-24T09:30:36;10.00;;;2.17;;
27899;SDS011;15243;50.726;7.080;2023-03-24T09:33:03;9.07;;;2.08;;
27899;SDS011;15243;50.726;7.080;2023-03-24T09:35:30;9.07;;;1.60;;
27899;SDS011;15243;50.726;7.080;2023-03-24T09:37:59;13.43;;;2.38;;
27899;SDS011;15243;50.726;7.080;2023-03-24T09:40:30;6.60;;;1.75;;
27899;SDS011;15243;50.726;7.080;2023-03-24T09:43:05;11.25;;;2.03;;
27899;SDS011;15243;50.726;7.080;2023-03-24T09:45:52;6.63;;;1.67;;
27899;SDS011;15243;50.726;7.080;2023-03-24T09:51:10;9.65;;;2.35;;
27899;SDS011;15243;50.726;7.080;2023-03-24T09:56:43;4.88;;;1.65;;
27899;SDS011;15243;50.726;7.080;2023-03-24T10:01:46;8.20;;;2.03;;
27899;SDS011;15243;50.726;7.080;2023-03-24T10:04:20;8.25;;;2.00;;
27899;SDS011;15243;50.726;7.080;2023-03-24T10:06:51;5.65;;;1.75;;
27899;SDS011;15243;50.726;7.080;2023-03-24T10:09:34;7.80;;;2.20;;
27899;SDS011;15243;50.726;7.080;2023-03-24T10:20:55;8.02;;;1.83;;
27899;SDS011;15243;50.726;7.080;2023-03-24T10:31:49;8.73;;;1.80;;
27899;SDS011;15243;50.726;7.080;2023-03-24T10:34:29;6.93;;;1.50;;
27899;SDS011;15243;50.726;7.080;2023-03-24T10:36:59;6.32;;;1.40;;
27899;SDS011;15243;50.726;7.080;2023-03-24T10:39:28;7.65;;;1.30;;
27899;SDS011;15243;50.726;7.080;2023-03-24T10:42:14;5.60;;;1.30;;
27899;SDS011;15243;50.726;7.080;2023-03-24T10:44:51;6.88;;;1.38;;
27899;SDS011;15243;50.726;7.080;2023-03-24T10:47:19;10.05;;;1.50;;
27899;SDS011;15243;50.726;7.080;2023-03-24T10:52:18;6.43;;;1.60;;
27899;SDS011;15243;50.726;7.080;2023-03-24T10:54:52;6.32;;;1.63;;
27899;SDS011;15243;50.726;7.080;2023-03-24T10:57:24;5.47;;;1.42;;
27899;SDS011;15243;50.726;7.080;2023-03-24T10:59:54;7.50;;;1.67;;
27899;SDS011;15243;50.726;7.080;2023-03-24T11:02:28;6.68;;;1.45;;
27899;SDS011;15243;50.726;7.080;2023-03-24T11:05:14;7.80;;;1.73;;
27899;SDS011;15243;50.726;7.080;2023-03-24T11:07:45;7.35;;;1.60;;
27899;SDS011;15243;50.726;7.080;2023-03-24T11:10:15;9.02;;;1.55;;
27899;SDS011;15243;50.726;7.080;2023-03-24T11:13:00;5.82;;;1.75;;
27899;SDS011;15243;50.726;7.080;2023-03-24T11:15:31;8.63;;;1.40;;
27899;SDS011;15243;50.726;7.080;2023-03-24T11:18:22;8.43;;;1.80;;
27899;SDS011;15243;50.726;7.080;2023-03-24T11:23:28;9.90;;;1.23;;
27899;SDS011;15243;50.726;7.080;2023-03-24T11:28:32;7.30;;;1.77;;
27899;SDS011;15243;50.726;7.080;2023-03-24T11:31:06;4.82;;;1.40;;
27899;SDS011;15243;50.726;7.080;2023-03-24T11:33:44;6.75;;;1.40;;
27899;SDS011;15243;50.726;7.080;2023-03-24T11:41:37;6.50;;;1.35;;
27899;SDS011;15243;50.726;7.080;2023-03-24T11:44:22;4.07;;;1.50;;
27899;SDS011;15243;50.726;7.080;2023-03-24T11:46:52;7.05;;;1.58;;
27899;SDS011;15243;50.726;7.080;2023-03-24T11:49:25;6.47;;;1.30;;
27899;SDS011;15243;50.726;7.080;2023-03-24T11:51:56;6.55;;;1.05;;
27899;SDS011;15243;50.726;7.080;2023-03-24T11:54:25;4.50;;;1.60;;
27899;SDS011;15243;50.726;7.080;2023-03-24T11:56:58;6.97;;;1.38;;
27899;SDS011;15243;50.726;7.080;2023-03-24T12:07:58;6.10;;;1.20;;
27899;SDS011;15243;50.726;7.080;2023-03-24T12:10:48;4.38;;;1.10;;
27899;SDS011;15243;50.726;7.080;2023-03-24T12:16:35;4.45;;;1.15;;
27899;SDS011;15243;50.726;7.080;2023-03-24T12:30:42;7.32;;;1.30;;
27899;SDS011;15243;50.726;7.080;2023-03-24T12:41:37;4.95;;;1.02;;
27899;SDS011;15243;50.726;7.080;2023-03-24T12:49:47;7.35;;;1.65;;
27899;SDS011;15243;50.726;7.080;2023-03-24T12:56:16;5.45;;;1.20;;
27899;SDS011;15243;50.726;7.080;2023-03-24T13:03:40;5.05;;;1.25;;
27899;SDS011;15243;50.726;7.080;2023-03-24T13:06:17;6.80;;;1.23;;
27899;SDS011;15243;50.726;7.080;2023-03-24T13:09:02;6.38;;;1.15;;
27899;SDS011;15243;50.726;7.080;2023-03-24T13:11:38;3.35;;;0.82;;
27899;SDS011;15243;50.726;7.080;2023-03-24T13:14:14;6.07;;;1.42;;
27899;SDS011;15243;50.726;7.080;2023-03-24T13:16:47;7.50;;;1.15;;
27899;SDS011;15243;50.726;7.080;2023-03-24T13:19:17;5.53;;;1.17;;
27899;SDS011;15243;50.726;7.080;2023-03-24T13:21:48;7.38;;;1.67;;
27899;SDS011;15243;50.726;7.080;2023-03-24T13:24:17;6.38;;;1.70;;
27899;SDS011;15243;50.726;7.080;2023-03-24T13:26:49;9.20;;;2.05;;
27899;SDS011;15243;50.726;7.080;2023-03-24T13:35:04;5.53;;;1.40;;
27899;SDS011;15243;50.726;7.080;2023-03-24T13:37:55;8.00;;;1.58;;
27899;SDS011;15243;50.726;7.080;2023-03-24T13:40:29;4.85;;;1.10;;
27899;SDS011;15243;50.726;7.080;2023-03-24T13:45:46;4.75;;;0.90;;
27899;SDS011;15243;50.726;7.080;2023-03-24T13:48:21;5.15;;;1.48;;
27899;SDS011;15243;50.726;7.080;2023-03-24T13:51:28;5.78;;;1.52;;
27899;SDS011;15243;50.726;7.080;2023-03-24T13:56:32;5.03;;;1.15;;
27899;SDS011;15243;50.726;7.080;2023-03-24T14:06:53;5.45;;;1.15;;
27899;SDS011;15243;50.726;7.080;2023-03-24T14:09:28;7.20;;;1.10;;
27899;SDS011;15243;50.726;7.080;2023-03-24T14:14:34;5.80;;;0.90;;
27899;SDS011;15243;50.726;7.080;2023-03-24T14:17:21;7.65;;;1.50;;
27899;SDS011;15243;50.726;7.080;2023-03-24T14:24:59;4.93;;;1.08;;
27899;SDS011;15243;50.726;7.080;2023-03-24T14:31:02;5.78;;;2.25;;
27899;SDS011;15243;50.726;7.080;2023-03-24T14:33:38;5.50;;;1.13;;
27899;SDS011;15243;50.726;7.080;2023-03-24T14:36:07;6.93;;;1.10;;
27899;SDS011;15243;50.726;7.080;2023-03-24T14:38:40;8.32;;;1.30;;
27899;SDS011;15243;50.726;7.080;2023-03-24T14:41:14;6.50;;;1.30;;
27899;SDS011;15243;50.726;7.080;2023-03-24T14:54:10;7.97;;;1.45;;
27899;SDS011;15243;50.726;7.080;2023-03-24T14:56:50;5.78;;;1.20;;
27899;SDS011;15243;50.726;7.080;2023-03-24T14:59:23;4.95;;;0.90;;
27899;SDS011;15243;50.726;7.080;2023-03-24T15:01:59;3.60;;;1.00;;
27899;SDS011;15243;50.726;7.080;2023-03-24T15:04:31;6.32;;;1.35;;
27899;SDS011;15243;50.726;7.080;2023-03-24T15:06:58;12.27;;;2.00;;
27899;SDS011;15243;50.726;7.080;2023-03-24T15:09:30;8.57;;;1.55;;
27899;SDS011;15243;50.726;7.080;2023-03-24T15:11:58;4.63;;;1.45;;
27899;SDS011;15243;50.726;7.080;2023-03-24T15:14:26;7.55;;;1.40;;
27899;SDS011;15243;50.726;7.080;2023-03-24T15:17:02;9.38;;;1.70;;
27899;SDS011;15243;50.726;7.080;2023-03-24T15:19:45;5.07;;;1.20;;
27899;SDS011;15243;50.726;7.080;2023-03-24T15:22:19;7.45;;;1.67;;
27899;SDS011;15243;50.726;7.080;2023-03-24T15:24:47;6.38;;;1.55;;
27899;SDS011;15243;50.726;7.080;2023-03-24T15:29:45;5.38;;;1.33;;
27899;SDS011;15243;50.726;7.080;2023-03-24T15:32:20;6.38;;;1.13;;
27899;SDS011;15243;50.726;7.080;2023-03-24T15:34:57;4.43;;;0.88;;
27899;SDS011;15243;50.726;7.080;2023-03-24T15:37:37;5.20;;;1.10;;
27899;SDS011;15243;50.726;7.080;2023-03-24T15:42:57;3.33;;;1.23;;
27899;SDS011;15243;50.726;7.080;2023-03-24T15:47:55;5.25;;;1.60;;
27899;SDS011;15243;50.726;7.080;2023-03-24T15:50:34;4.50;;;1.20;;
27899;SDS011;15243;50.726;7.080;2023-03-24T15:53:20;5.78;;;1.25;;
27899;SDS011;15243;50.726;7.080;2023-03-24T15:56:13;5.70;;;1.73;;
27899;SDS011;15243;50.726;7.080;2023-03-24T16:01:19;5.80;;;1.10;;
27899;SDS011;15243;50.726;7.080;2023-03-24T16:03:58;7.40;;;1.55;;
27899;SDS011;15243;50.726;7.080;2023-03-24T16:06:27;5.35;;;1.15;;
27899;SDS011;15243;50.726;7.080;2023-03-24T16:09:06;4.75;;;1.48;;
27899;SDS011;15243;50.726;7.080;2023-03-24T16:11:39;9.95;;;1.35;;
27899;SDS011;15243;50.726;7.080;2023-03-24T16:16:57;5.65;;;1.27;;
27899;SDS011;15243;50.726;7.080;2023-03-24T16:19:27;7.65;;;1.08;;
27899;SDS011;15243;50.726;7.080;2023-03-24T16:21:54;10.65;;;1.90;;
27899;SDS011;15243;50.726;7.080;2023-03-24T16:24:21;5.30;;;1.40;;
27899;SDS011;15243;50.726;7.080;2023-03-24T16:26:48;8.30;;;1.15;;
27899;SDS011;15243;50.726;7.080;2023-03-24T16:29:16;6.93;;;1.58;;
27899;SDS011;15243;50.726;7.080;2023-03-24T16:31:46;6.43;;;1.65;;
27899;SDS011;15243;50.726;7.080;2023-03-24T16:34:15;7.45;;;1.30;;
27899;SDS011;15243;50.726;7.080;2023-03-24T16:36:47;5.83;;;1.60;;
27899;SDS011;15243;50.726;7.080;2023-03-24T16:39:16;7.68;;;1.70;;
27899;SDS011;15243;50.726;7.080;2023-03-24T16:41:44;3.28;;;1.17;;
27899;SDS011;15243;50.726;7.080;2023-03-24T16:44:12;7.20;;;1.17;;
27899;SDS011;15243;50.726;7.080;2023-03-24T16:46:39;7.53;;;1.30;;
27899;SDS011;15243;50.726;7.080;2023-03-24T16:49:09;8.25;;;1.33;;
27899;SDS011;15243;50.726;7.080;2023-03-24T16:51:39;8.63;;;1.52;;
27899;SDS011;15243;50.726;7.080;2023-03-24T16:54:06;7.78;;;1.55;;
27899;SDS011;15243;50.726;7.080;2023-03-24T16:56:35;6.53;;;1.40;;
27899;SDS011;15243;50.726;7.080;2023-03-24T16:59:03;7.38;;;1.40;;
27899;SDS011;15243;50.726;7.080;2023-03-24T17:04:00;7.10;;;1.27;;
27899;SDS011;15243;50.726;7.080;2023-03-24T17:06:30;5.85;;;1.38;;
27899;SDS011;15243;50.726;7.080;2023-03-24T17:08:58;9.52;;;1.20;;
27899;SDS011;15243;50.726;7.080;2023-03-24T17:11:26;5.35;;;1.35;;
27899;SDS011;15243;50.726;7.080;2023-03-24T17:13:55;4.32;;;0.95;;
27899;SDS011;15243;50.726;7.080;2023-03-24T17:16:27;5.40;;;0.90;;
27899;SDS011;15243;50.726;7.080;2023-03-24T17:18:54;2.80;;;0.57;;
27899;SDS011;15243;50.726;7.080;2023-03-24T17:21:21;2.30;;;0.80;;
27899;SDS011;15243;50.726;7.080;2023-03-24T17:23:49;3.13;;;0.90;;
27899;SDS011;15243;50.726;7.080;2023-03-24T17:26:20;2.20;;;0.65;;
27899;SDS011;15243;50.726;7.080;2023-03-24T17:28:48;2.53;;;0.47;;
27899;SDS011;15243;50.726;7.080;2023-03-24T17:31:16;1.40;;;0.57;;
27899;SDS011;15243;50.726;7.080;2023-03-24T17:33:43;3.67;;;0.70;;
27899;SDS011;15243;50.726;7.080;2023-03-24T17:36:13;4.45;;;0.77;;
27899;SDS011;15243;50.726;7.080;2023-03-24T17:38:41;2.53;;;0.90;;
27899;SDS011;15243;50.726;7.080;2023-03-24T17:41:10;2.85;;;0.90;;
27899;SDS011;15243;50.726;7.080;2023-03-24T17:43:36;3.22;;;0.93;;
27899;SDS011;15243;50.726;7.080;2023-03-24T17:46:03;2.45;;;1.30;;
27899;SDS011;15243;50.726;7.080;2023-03-24T17:48:30;12.88;;;4.47;;
27899;SDS011;15243;50.726;7.080;2023-03-24T17:50:58;16.92;;;7.95;;
27899;SDS011;15243;50.726;7.080;2023-03-24T17:53:25;23.73;;;8.15;;
27899;SDS011;15243;50.726;7.080;2023-03-24T17:55:53;11.50;;;3.80;;
27899;SDS011;15243;50.726;7.080;2023-03-24T17:58:23;5.30;;;1.80;;
27899;SDS011;15243;50.726;7.080;2023-03-24T18:00:52;7.50;;;3.67;;
27899;SDS011;15243;50.726;7.080;2023-03-24T18:03:19;7.78;;;4.22;;
27899;SDS011;15243;50.726;7.080;2023-03-24T18:05:47;8.05;;;2.80;;
27899;SDS011;15243;50.726;7.080;2023-03-24T18:08:15;4.60;;;1.95;;
27899;SDS011;15243;50.726;7.080;2023-03-24T18:10:42;6.45;;;1.75;;
27899;SDS011;15243;50.726;7.080;2023-03-24T18:13:09;4.45;;;1.50;;
27899;SDS011;15243;50.726;7.080;2023-03-24T18:15:39;7.55;;;1.40;;
27899;SDS011;15243;50.726;7.080;2023-03-24T18:18:07;6.88;;;1.30;;
27899;SDS011;15243;50.726;7.080;2023-03-24T18:20:34;3.92;;;1.42;;
27899;SDS011;15243;50.726;7.080;2023-03-24T18:23:01;2.38;;;1.08;;
27899;SDS011;15243;50.726;7.080;2023-03-24T18:25:30;6.43;;;1.50;;
27899;SDS011;15243;50.726;7.080;2023-03-24T18:27:57;3.97;;;1.33;;
27899;SDS011;15243;50.726;7.080;2023-03-24T18:30:24;3.55;;;1.90;;